createdAt,value
2022-12-27T06:39:12.442Z,96469.66
2022-12-27T06:41:44.568Z,96465.44
2022-12-27T06:44:14.492Z,96464.63
2022-12-27T06:46:46.197Z,96468.63
2022-12-27T06:49:16.556Z,96464.09
2022-12-27T06:51:52.552Z,96471.31
2022-12-27T06:54:32.500Z,96467.19
2022-12-27T06:57:04.233Z,96457.25
2022-12-27T06:59:34.671Z,96462.91
2022-12-27T07:02:05.555Z,96466.84
2022-12-27T07:04:35.625Z,96469.38
2022-12-27T07:07:09.660Z,96473.38
2022-12-27T07:09:46.443Z,96475.28
2022-12-27T07:12:17.331Z,96481.22
2022-12-27T07:14:47.502Z,96483.97
2022-12-27T07:17:17.741Z,96478.78
2022-12-27T07:19:48.334Z,96476.41
2022-12-27T07:22:20.156Z,96481.53
2022-12-27T07:24:52.938Z,96486.88
2022-12-27T07:27:23.738Z,96490.59
2022-12-27T07:29:56.333Z,96496.78
2022-12-27T07:32:27.179Z,96492.28
2022-12-27T07:34:57.057Z,96495.22
2022-12-27T07:37:27.102Z,96490.09
2022-12-27T07:40:46.261Z,96491.78
2022-12-27T07:43:16.093Z,96494.91
2022-12-27T07:45:46.927Z,96494.50
2022-12-27T07:48:17.187Z,96496.19
2022-12-27T07:50:47.203Z,96501.97
2022-12-27T07:53:17.464Z,96502.94
2022-12-27T07:55:54.503Z,96505.34
2022-12-27T07:58:26.021Z,96502.69
2022-12-27T08:00:57.691Z,96499.03
2022-12-27T08:03:27.897Z,96512.09
2022-12-27T08:05:57.897Z,96512.88
2022-12-27T08:08:34.852Z,96517.44
2022-12-27T08:11:08.034Z,96512.41
2022-12-27T08:13:38.468Z,96510.34
2022-12-27T08:16:09.995Z,96505.63
2022-12-27T08:18:39.876Z,96502.81
2022-12-27T08:21:09.870Z,96493.78
2022-12-27T08:23:40.089Z,96489.69
2022-12-27T08:26:13.147Z,96494.47
2022-12-27T08:28:43.114Z,96490.22
2022-12-27T08:31:17.604Z,96487.72
2022-12-27T08:33:47.778Z,96495.66
2022-12-27T08:39:12.198Z,96482.81
2022-12-27T08:41:47.486Z,96480.47
2022-12-27T08:44:19.772Z,96483.25
2022-12-27T08:46:51.061Z,96489.63
2022-12-27T08:49:23.851Z,96489.06
2022-12-27T08:51:54.630Z,96492.69
2022-12-27T08:54:24.769Z,96508.91
2022-12-27T08:56:57.607Z,96508.97
2022-12-27T08:59:27.591Z,96516.44
2022-12-27T09:01:57.513Z,96519.13
2022-12-27T09:04:27.539Z,96513.91
2022-12-27T09:06:57.544Z,96517.53
2022-12-27T09:09:27.390Z,96520.81
2022-12-27T09:12:02.874Z,96514.19
2022-12-27T09:14:35.555Z,96523.59
2022-12-27T09:17:07.202Z,96515.84
2022-12-27T09:19:37.358Z,96525.44
2022-12-27T09:22:07.699Z,96522.72
2022-12-27T09:24:38.175Z,96524.94
2022-12-27T09:27:10.888Z,96535.88
2022-12-27T09:29:46.406Z,96534.00
2022-12-27T09:32:18.119Z,96536.00
2022-12-27T09:34:47.959Z,96538.06
2022-12-27T09:37:19.346Z,96538.41
2022-12-27T09:39:49.569Z,96536.31
2022-12-27T09:42:56.139Z,96532.78
2022-12-27T09:45:43.175Z,96541.97
2022-12-27T09:48:19.129Z,96534.50
2022-12-27T09:50:54.841Z,96539.97
2022-12-27T09:53:35.496Z,96533.59
2022-12-27T09:56:09.569Z,96536.38
2022-12-27T09:58:50.722Z,96526.66
2022-12-27T10:01:24.747Z,96540.59
2022-12-27T10:03:55.871Z,96527.13
2022-12-27T10:06:51.251Z,96532.41
2022-12-27T10:09:39.833Z,96528.28
2022-12-27T10:12:31.834Z,96523.75
2022-12-27T10:15:21.676Z,96522.38
2022-12-27T10:18:05.609Z,96527.91
2022-12-27T10:20:53.511Z,96514.47
2022-12-27T10:23:28.108Z,96523.59
2022-12-27T10:26:02.751Z,96509.00
2022-12-27T10:28:41.855Z,96510.75
2022-12-27T10:31:20.539Z,96504.59
2022-12-27T10:33:53.725Z,96506.06
2022-12-27T10:36:28.949Z,96498.56
2022-12-27T10:38:59.509Z,96499.22
2022-12-27T10:41:50.272Z,96499.41
2022-12-27T10:44:20.180Z,96500.69
2022-12-27T10:46:59.627Z,96503.25
2022-12-27T10:49:31.785Z,96498.09
2022-12-27T10:52:11.423Z,96504.56
2022-12-27T10:54:54.005Z,96500.75
2022-12-27T10:57:30.860Z,96507.19
2022-12-27T11:00:19.410Z,96510.44
2022-12-27T11:02:56.957Z,96501.81
2022-12-27T11:05:29.856Z,96500.84
2022-12-27T11:08:01.245Z,96495.47
2022-12-27T11:10:33.793Z,96501.25
2022-12-27T11:13:05.380Z,96496.06
2022-12-27T11:15:39.272Z,96481.00
2022-12-27T11:18:22.102Z,96481.25
2022-12-27T11:20:55.770Z,96484.06
2022-12-27T11:23:30.723Z,96478.69
2022-12-27T11:26:04.286Z,96481.31
2022-12-27T11:28:39.327Z,96482.97
2022-12-27T11:31:13.918Z,96475.94
2022-12-27T11:33:51.330Z,96470.88
2022-12-27T11:36:29.156Z,96474.19
2022-12-27T11:39:00.634Z,96474.47
2022-12-27T11:41:46.732Z,96465.09
2022-12-27T11:44:25.149Z,96457.03
2022-12-27T11:47:02.901Z,96461.47
2022-12-27T11:49:39.689Z,96463.22
2022-12-27T11:52:43.272Z,96464.19
2022-12-27T11:55:38.405Z,96451.75
2022-12-27T11:58:35.981Z,96453.16
2022-12-27T12:01:33.081Z,96463.19
2022-12-27T12:04:28.740Z,96456.75
2022-12-27T12:07:20.330Z,96461.34
2022-12-27T12:10:09.324Z,96462.34
2022-12-27T12:13:05.635Z,96456.66
2022-12-27T12:16:03.501Z,96459.47
2022-12-27T12:19:04.686Z,96456.56
2022-12-27T12:21:43.432Z,96457.38
2022-12-27T12:24:44.837Z,96457.50
2022-12-27T12:27:43.856Z,96452.78
2022-12-27T12:30:47.617Z,96454.69
2022-12-27T12:33:41.641Z,96449.78
2022-12-27T12:36:41.473Z,96440.78
2022-12-27T12:39:29.967Z,96437.47
2022-12-27T12:42:17.976Z,96442.34
2022-12-27T12:45:30.252Z,96441.06
2022-12-27T12:48:27.217Z,96437.44
2022-12-27T12:51:23.962Z,96435.28
2022-12-27T12:54:13.089Z,96426.38
2022-12-27T12:57:12.497Z,96432.25
2022-12-27T13:00:07.233Z,96434.66
2022-12-27T13:03:07.364Z,96423.72
2022-12-27T13:05:48.639Z,96424.41
2022-12-27T13:08:29.657Z,96424.81
2022-12-27T13:11:28.600Z,96418.72
2022-12-27T13:14:26.331Z,96423.09
2022-12-27T13:17:05.402Z,96414.09
2022-12-27T13:19:49.349Z,96420.56
2022-12-27T13:22:27.457Z,96417.72
2022-12-27T13:25:15.296Z,96423.88
2022-12-27T13:28:01.337Z,96417.25
2022-12-27T13:30:46.910Z,96421.06
2022-12-27T13:33:30.861Z,96418.34
2022-12-27T13:36:18.044Z,96417.72
2022-12-27T13:39:22.863Z,96417.66
2022-12-27T13:42:16.104Z,96417.31
2022-12-27T13:45:03.965Z,96413.97
2022-12-27T13:48:04.203Z,96413.78
2022-12-27T13:50:59.332Z,96412.34
2022-12-27T13:54:00.401Z,96411.59
2022-12-27T13:56:53.884Z,96406.38
2022-12-27T13:59:51.180Z,96404.19
2022-12-27T14:03:01.421Z,96400.78
2022-12-27T14:06:01.942Z,96393.75
2022-12-27T14:08:59.100Z,96397.09
2022-12-27T14:11:47.564Z,96393.66
2022-12-27T14:14:28.405Z,96399.84
2022-12-27T14:17:26.349Z,96414.78
2022-12-27T14:20:15.688Z,96416.75
2022-12-27T14:23:17.068Z,96423.59
2022-12-27T14:26:17.047Z,96425.75
2022-12-27T14:29:19.418Z,96427.94
2022-12-27T14:32:25.054Z,96424.53
2022-12-27T14:35:27.852Z,96427.75
2022-12-27T14:38:37.036Z,96424.34
2022-12-27T14:41:50.985Z,96429.25
2022-12-27T14:44:54.126Z,96426.13
2022-12-27T14:48:01.617Z,96428.94
2022-12-27T14:51:32.670Z,96426.31
2022-12-27T14:54:50.482Z,96427.06
2022-12-27T14:57:37.768Z,96422.81
2022-12-27T15:00:19.638Z,96425.31
2022-12-27T15:03:09.020Z,96428.94
2022-12-27T15:05:58.463Z,96435.00
2022-12-27T15:08:53.147Z,96425.38
2022-12-27T15:11:59.813Z,96437.47
2022-12-27T15:14:54.007Z,96429.66
2022-12-27T15:17:43.671Z,96430.84
2022-12-27T15:20:45.915Z,96423.69
2022-12-27T15:23:30.973Z,96423.38
2022-12-27T15:26:18.488Z,96422.78
2022-12-27T15:29:22.069Z,96425.19
2022-12-27T15:32:05.127Z,96423.59
2022-12-27T15:34:57.258Z,96428.78
2022-12-27T15:37:55.450Z,96430.09
2022-12-27T15:40:48.195Z,96429.44
2022-12-27T15:43:37.787Z,96426.06
2022-12-27T15:46:28.649Z,96430.16
2022-12-27T15:49:31.765Z,96429.66
2022-12-27T15:52:11.601Z,96424.31
2022-12-27T15:55:14.295Z,96427.03
2022-12-27T15:58:15.838Z,96425.06
2022-12-27T16:00:48.053Z,96430.47
2022-12-27T16:03:38.362Z,96428.19
2022-12-27T16:06:10.334Z,96418.09
2022-12-27T16:08:41.879Z,96423.78
2022-12-27T16:11:14.638Z,96422.97
2022-12-27T16:13:48.357Z,96425.72
2022-12-27T16:20:02.300Z,96429.09
2022-12-27T16:22:41.051Z,96426.25
2022-12-27T16:25:31.453Z,96427.03
2022-12-27T16:28:06.845Z,96421.84
2022-12-27T16:30:54.092Z,96426.38
2022-12-27T16:33:37.917Z,96418.00
2022-12-27T16:36:22.992Z,96418.25
2022-12-27T16:39:16.667Z,96413.88
2022-12-27T16:42:04.313Z,96410.44
2022-12-27T16:44:56.392Z,96415.13
2022-12-27T16:47:51.080Z,96417.03
2022-12-27T16:50:41.372Z,96413.72
2022-12-27T16:53:48.596Z,96413.63
2022-12-27T16:56:26.058Z,96407.00
2022-12-27T16:58:56.095Z,96408.28
2022-12-27T17:02:03.261Z,96400.94
2022-12-27T17:04:58.335Z,96393.66
2022-12-27T17:07:49.016Z,96388.91
2022-12-27T17:10:49.747Z,96393.75
2022-12-27T17:13:24.317Z,96381.56
2022-12-27T17:16:01.008Z,96375.56
2022-12-27T17:18:35.036Z,96372.97
2022-12-27T17:21:11.351Z,96377.53
2022-12-27T17:23:46.232Z,96379.16
2022-12-27T17:26:39.536Z,96374.47
2022-12-27T17:29:35.888Z,96371.69
2022-12-27T17:32:22.995Z,96373.91
2022-12-27T17:35:04.915Z,96364.97
2022-12-27T17:37:47.531Z,96363.63
2022-12-27T17:40:32.099Z,96362.19
2022-12-27T17:43:50.895Z,96362.00
2022-12-27T17:46:36.543Z,96366.72
2022-12-27T17:49:11.636Z,96366.03
2022-12-27T17:52:08.619Z,96369.97
2022-12-27T17:54:51.398Z,96361.00
2022-12-27T17:57:35.845Z,96371.56
2022-12-27T18:00:23.901Z,96362.94
2022-12-27T18:02:58.695Z,96361.63
2022-12-27T18:05:33.758Z,96355.34
2022-12-27T18:08:08.306Z,96356.31
2022-12-27T18:10:39.745Z,96355.97
2022-12-27T18:13:11.119Z,96350.94
2022-12-27T18:15:48.690Z,96346.25
2022-12-27T18:18:25.830Z,96348.19
2022-12-27T18:20:59.743Z,96351.25
2022-12-27T18:23:30.433Z,96344.25
2022-12-27T18:26:13.159Z,96332.47
2022-12-27T18:28:45.437Z,96333.13
2022-12-27T18:31:27.612Z,96333.28
2022-12-27T18:34:03.482Z,96330.84
2022-12-27T18:36:40.003Z,96326.16
2022-12-27T18:39:27.039Z,96329.69
2022-12-27T18:41:59.810Z,96327.63
2022-12-27T18:44:35.225Z,96325.19
2022-12-27T18:47:08.543Z,96324.31
2022-12-27T18:49:40.771Z,96320.91
2022-12-27T18:52:17.699Z,96324.63
2022-12-27T18:54:47.832Z,96325.44
2022-12-27T18:57:35.218Z,96316.69
2022-12-27T19:00:19.104Z,96311.81
2022-12-27T19:02:54.245Z,96313.19
2022-12-27T19:05:31.342Z,96324.69
2022-12-27T19:08:15.510Z,96318.50
2022-12-27T19:10:52.853Z,96315.59
2022-12-27T19:13:28.525Z,96314.25
2022-12-27T19:16:01.913Z,96311.31
2022-12-27T19:18:39.115Z,96322.00
2022-12-27T19:21:09.672Z,96315.22
2022-12-27T19:23:43.208Z,96309.03
2022-12-27T19:26:28.657Z,96311.81
2022-12-27T19:29:11.248Z,96320.88
2022-12-27T19:31:46.119Z,96318.44
2022-12-27T19:34:22.568Z,96317.44
2022-12-27T19:36:53.914Z,96317.44
2022-12-27T19:39:28.396Z,96314.19
2022-12-27T19:42:01.111Z,96309.63
2022-12-27T19:44:32.246Z,96308.00
2022-12-27T19:47:04.107Z,96307.16
2022-12-27T19:49:42.686Z,96301.81
2022-12-27T19:52:21.821Z,96308.75
2022-12-27T19:54:55.173Z,96304.47
2022-12-27T19:57:25.901Z,96303.06
2022-12-27T19:59:56.115Z,96298.06
2022-12-27T20:02:26.319Z,96302.91
2022-12-27T20:04:58.919Z,96291.28
2022-12-27T20:07:29.286Z,96292.75
2022-12-27T20:09:59.970Z,96290.66
2022-12-27T20:12:29.981Z,96291.38
2022-12-27T20:15:00.208Z,96285.59
2022-12-27T20:17:32.619Z,96287.13
2022-12-27T20:20:05.536Z,96286.94
2022-12-27T20:22:35.727Z,96287.13
2022-12-27T20:25:06.361Z,96285.88
2022-12-27T20:27:36.293Z,96283.25
2022-12-27T20:30:07.011Z,96292.94
2022-12-27T20:32:38.275Z,96294.88
2022-12-27T20:35:11.631Z,96292.94
2022-12-27T20:37:42.650Z,96282.88
2022-12-27T20:40:13.826Z,96278.63
2022-12-27T20:42:43.676Z,96280.19
2022-12-27T20:45:14.697Z,96270.91
2022-12-27T20:47:44.887Z,96273.00
2022-12-27T20:50:17.328Z,96264.22
2022-12-27T20:52:47.305Z,96269.66
2022-12-27T20:55:17.445Z,96269.94
2022-12-27T20:57:49.949Z,96281.31
2022-12-27T21:00:20.381Z,96279.16
2022-12-27T21:02:50.539Z,96273.97
2022-12-27T21:05:26.298Z,96274.56
2022-12-27T21:07:59.132Z,96277.97
2022-12-27T21:10:29.252Z,96265.47
2022-12-27T21:12:59.363Z,96259.63
2022-12-27T21:15:31.238Z,96258.16
2022-12-27T21:18:02.772Z,96252.81
2022-12-27T21:20:40.383Z,96253.31
2022-12-27T21:23:11.493Z,96238.41
2022-12-27T21:25:44.555Z,96246.84
2022-12-27T21:28:18.201Z,96245.28
2022-12-27T21:30:58.371Z,96254.75
2022-12-27T21:33:29.531Z,96249.44
2022-12-27T21:36:04.961Z,96244.53
2022-12-27T21:38:36.596Z,96243.44
2022-12-27T21:41:11.691Z,96243.22
2022-12-27T21:43:41.700Z,96239.97
2022-12-27T21:46:15.686Z,96239.00
2022-12-27T21:48:46.015Z,96240.25
2022-12-27T21:51:22.211Z,96238.53
2022-12-27T21:53:53.038Z,96241.13
2022-12-27T21:56:23.430Z,96232.50
2022-12-27T21:58:55.648Z,96239.59
2022-12-27T22:01:28.433Z,96243.50
2022-12-27T22:04:01.370Z,96240.84
2022-12-27T22:06:39.413Z,96235.44
2022-12-27T22:09:14.228Z,96237.66
2022-12-27T22:11:44.159Z,96239.13
2022-12-27T22:14:14.368Z,96229.63
2022-12-27T22:16:44.595Z,96233.44
2022-12-27T22:19:15.929Z,96232.81
2022-12-27T22:21:48.344Z,96232.63
2022-12-27T22:24:20.032Z,96229.53
2022-12-27T22:26:53.449Z,96230.13
2022-12-27T22:29:24.399Z,96225.84
2022-12-27T22:31:54.341Z,96222.44
2022-12-27T22:34:24.144Z,96223.03
2022-12-27T22:36:56.727Z,96210.22
2022-12-27T22:39:26.794Z,96213.03
2022-12-27T22:41:57.243Z,96209.56
2022-12-27T22:44:29.935Z,96209.13
2022-12-27T22:47:25.646Z,96213.03
2022-12-27T22:49:50.256Z,96211.41
2022-12-27T22:52:22.769Z,96203.41
2022-12-27T22:55:04.295Z,96195.38
2022-12-27T22:57:39.723Z,96199.56
2022-12-27T23:00:14.828Z,96200.16
2022-12-27T23:02:45.032Z,96204.69
2022-12-27T23:05:14.912Z,96206.47
2022-12-27T23:08:06.272Z,96195.31
2022-12-27T23:10:36.941Z,96200.97
2022-12-27T23:13:07.810Z,96200.16
2022-12-27T23:15:40.707Z,96197.00
2022-12-27T23:18:10.744Z,96192.41
2022-12-27T23:21:20.754Z,96195.94
2022-12-27T23:23:35.998Z,96189.16
2022-12-27T23:26:09.337Z,96190.78
2022-12-27T23:28:39.650Z,96189.31
2022-12-27T23:31:11.168Z,96195.44
2022-12-27T23:33:41.590Z,96191.09
2022-12-27T23:36:12.750Z,96185.53
2022-12-27T23:38:47.059Z,96189.75
2022-12-27T23:41:20.315Z,96183.91
2022-12-27T23:43:53.257Z,96183.38
2022-12-27T23:46:27.665Z,96181.75
2022-12-27T23:48:58.668Z,96184.66
2022-12-27T23:51:29.570Z,96179.47
2022-12-27T23:54:02.908Z,96175.41
2022-12-27T23:56:35.146Z,96180.22
2022-12-27T23:59:06.066Z,96179.69
